Time;durP1;ratioP1;P1;durP2;ratioP2;P2;SDS_P1;SDS_P2;PMS_P1;PMS_P2;Temp;Humidity;BMP_temperature;BMP_pressure;BME280_temperature;BME280_humidity;BME280_pressure;Samples;Min_cycle;Max_cycle;Signal;HPM_P1;HPM_P2
2023/08/11 00:01:01;;;;;;;5.03;3.27;;;;;;;;;;5032504;28;20438;-53
2023/08/11 00:03:29;;;;;;;3.67;2.93;;;;;;;;;;5032401;28;20953;-53
2023/08/11 00:05:57;;;;;;;5.90;2.70;;;;;;;;;;5031355;28;20485;-53
2023/08/11 00:08:25;;;;;;;3.57;2.40;;;;;;;;;;5032210;28;20521;-54
2023/08/11 00:10:52;;;;;;;3.40;2.50;;;;;;;;;;5032203;28;20962;-54
2023/08/11 00:13:19;;;;;;;3.57;2.70;;;;;;;;;;5032276;28;20498;-52
2023/08/11 00:15:47;;;;;;;4.57;2.87;;;;;;;;;;5032207;28;20469;-52
2023/08/11 00:18:14;;;;;;;3.23;2.60;;;;;;;;;;5032094;28;20453;-53
2023/08/11 00:20:41;;;;;;;4.53;2.23;;;;;;;;;;5032170;28;20462;-53
2023/08/11 00:23:10;;;;;;;3.67;2.90;;;;;;;;;;5031244;28;20481;-53
2023/08/11 00:25:37;;;;;;;4.50;3.23;;;;;;;;;;5031722;28;20469;-53
2023/08/11 00:28:04;;;;;;;4.50;2.93;;;;;;;;;;5031976;28;20533;-54
2023/08/11 00:30:32;;;;;;;3.50;2.83;;;;;;;;;;5031037;28;20442;-53
2023/08/11 00:32:59;;;;;;;2.80;2.30;;;;;;;;;;5031910;28;20498;-53
2023/08/11 00:35:26;;;;;;;4.10;2.90;;;;;;;;;;5031798;28;20812;-53
2023/08/11 00:37:53;;;;;;;3.77;3.00;;;;;;;;;;5031918;28;20470;-54
2023/08/11 00:40:23;;;;;;;4.20;3.10;;;;;;;;;;5031265;28;20504;-53
2023/08/11 00:42:50;;;;;;;4.10;2.87;;;;;;;;;;5030098;28;20513;-53
2023/08/11 00:45:18;;;;;;;4.90;2.40;;;;;;;;;;5030304;28;20453;-53
2023/08/11 00:47:46;;;;;;;4.43;2.23;;;;;;;;;;5030214;28;20446;-54
2023/08/11 00:50:15;;;;;;;3.93;2.70;;;;;;;;;;5029921;28;20447;-53
2023/08/11 00:52:44;;;;;;;3.73;3.00;;;;;;;;;;5029986;28;20463;-52
2023/08/11 00:55:11;;;;;;;3.70;3.27;;;;;;;;;;5030491;28;20445;-52
2023/08/11 00:57:40;;;;;;;5.13;3.27;;;;;;;;;;5031132;28;20438;-53
2023/08/11 01:00:12;;;;;;;3.63;3.03;;;;;;;;;;5031174;28;20466;-54
2023/08/11 01:02:41;;;;;;;4.90;2.60;;;;;;;;;;5031126;28;20478;-53
2023/08/11 01:05:09;;;;;;;3.77;2.80;;;;;;;;;;5031435;28;20537;-53
2023/08/11 01:07:40;;;;;;;5.10;2.90;;;;;;;;;;5030323;28;21008;-53
2023/08/11 01:10:12;;;;;;;4.97;2.40;;;;;;;;;;5031095;28;21022;-53
2023/08/11 01:12:45;;;;;;;3.70;3.07;;;;;;;;;;5031397;28;20454;-53
2023/08/11 01:15:15;;;;;;;4.47;2.47;;;;;;;;;;5031249;28;20442;-53
2023/08/11 01:17:43;;;;;;;2.93;2.60;;;;;;;;;;5031379;28;20866;-53
2023/08/11 01:20:12;;;;;;;4.77;2.50;;;;;;;;;;5031104;28;20442;-54
2023/08/11 01:22:40;;;;;;;4.00;2.70;;;;;;;;;;5030412;28;20577;-54
2023/08/11 01:25:10;;;;;;;7.97;3.17;;;;;;;;;;5030499;28;20500;-52
2023/08/11 01:27:38;;;;;;;5.20;3.00;;;;;;;;;;5031380;28;20528;-53
2023/08/11 01:30:06;;;;;;;4.30;3.10;;;;;;;;;;5030673;28;20492;-53
2023/08/11 01:32:34;;;;;;;8.63;2.90;;;;;;;;;;5030579;28;20485;-53
2023/08/11 01:35:01;;;;;;;3.53;2.90;;;;;;;;;;5030697;28;20895;-52
2023/08/11 01:37:28;;;;;;;3.73;3.00;;;;;;;;;;5030641;28;20819;-53
2023/08/11 01:39:55;;;;;;;4.93;2.60;;;;;;;;;;5030705;28;20469;-53
2023/08/11 01:42:24;;;;;;;4.17;2.60;;;;;;;;;;5030255;28;20576;-53
2023/08/11 01:44:51;;;;;;;3.50;2.87;;;;;;;;;;5030809;28;20443;-53
2023/08/11 01:47:19;;;;;;;4.73;3.47;;;;;;;;;;5030667;28;20504;-53
2023/08/11 01:49:47;;;;;;;4.47;3.13;;;;;;;;;;5030047;28;20947;-54
2023/08/11 01:52:15;;;;;;;4.50;2.53;;;;;;;;;;5030245;28;20521;-53
2023/08/11 01:54:43;;;;;;;6.63;2.40;;;;;;;;;;5030682;28;20500;-53
2023/08/11 01:57:10;;;;;;;5.27;2.83;;;;;;;;;;5030654;28;20445;-52
2023/08/11 01:59:40;;;;;;;5.90;3.20;;;;;;;;;;5030677;28;20515;-52
2023/08/11 02:02:08;;;;;;;3.87;3.03;;;;;;;;;;5030302;28;20474;-53
2023/08/11 02:04:35;;;;;;;4.20;2.73;;;;;;;;;;5030312;28;20826;-52
2023/08/11 02:07:02;;;;;;;3.60;2.23;;;;;;;;;;5029733;28;20885;-53
2023/08/11 02:09:29;;;;;;;3.93;2.90;;;;;;;;;;5030240;28;20923;-53
2023/08/11 02:11:57;;;;;;;3.33;2.60;;;;;;;;;;5029865;28;20500;-54
2023/08/11 02:14:24;;;;;;;3.83;3.40;;;;;;;;;;5030381;28;20490;-52
2023/08/11 02:16:52;;;;;;;3.83;2.80;;;;;;;;;;5030290;28;20438;-54
2023/08/11 02:19:20;;;;;;;5.47;2.70;;;;;;;;;;5030326;28;20521;-53
2023/08/11 02:21:47;;;;;;;4.10;2.67;;;;;;;;;;5029088;28;20850;-53
2023/08/11 02:24:14;;;;;;;3.87;2.80;;;;;;;;;;5061928;23;20523;-56
2023/08/11 02:26:42;;;;;;;3.73;2.87;;;;;;;;;;4989040;28;20523;-57
2023/08/11 02:29:09;;;;;;;3.47;2.27;;;;;;;;;;4990984;28;20886;-55
2023/08/11 02:31:36;;;;;;;3.63;2.80;;;;;;;;;;4990529;28;20535;-54
2023/08/11 02:34:05;;;;;;;3.70;2.93;;;;;;;;;;4990810;28;20444;-54
2023/08/11 02:36:32;;;;;;;4.80;2.80;;;;;;;;;;4990955;28;20507;-55
2023/08/11 02:38:59;;;;;;;3.83;2.57;;;;;;;;;;4991097;28;20432;-54
2023/08/11 02:41:27;;;;;;;4.03;1.93;;;;;;;;;;4990816;28;20971;-55
2023/08/11 02:43:54;;;;;;;4.47;2.70;;;;;;;;;;4990462;28;20557;-55
2023/08/11 02:46:22;;;;;;;5.30;3.03;;;;;;;;;;4990458;28;20476;-54
2023/08/11 02:48:49;;;;;;;4.00;2.80;;;;;;;;;;4991002;28;20444;-54
2023/08/11 02:51:18;;;;;;;3.50;2.93;;;;;;;;;;4990592;28;20531;-54
2023/08/11 02:53:45;;;;;;;3.53;2.83;;;;;;;;;;4991927;28;20515;-55
2023/08/11 02:56:15;;;;;;;3.43;2.60;;;;;;;;;;4994621;28;20479;-56
2023/08/11 02:58:42;;;;;;;4.60;2.90;;;;;;;;;;4994687;28;20539;-55
2023/08/11 03:01:10;;;;;;;3.33;2.50;;;;;;;;;;4994155;28;20444;-55
2023/08/11 03:03:37;;;;;;;5.73;2.80;;;;;;;;;;4994168;28;20484;-56
2023/08/11 03:06:04;;;;;;;4.13;2.63;;;;;;;;;;4992670;28;20526;-55
2023/08/11 03:08:33;;;;;;;6.40;3.60;;;;;;;;;;4994430;28;20490;-54
2023/08/11 03:11:00;;;;;;;3.90;3.13;;;;;;;;;;4993685;28;20476;-55
2023/08/11 03:13:28;;;;;;;3.67;3.00;;;;;;;;;;4994221;28;20460;-54
2023/08/11 03:15:56;;;;;;;3.13;2.43;;;;;;;;;;4994305;28;20448;-55
2023/08/11 03:18:23;;;;;;;4.13;2.63;;;;;;;;;;4994094;28;20965;-56
2023/08/11 03:20:52;;;;;;;4.10;2.63;;;;;;;;;;4994009;28;20535;-55
2023/08/11 03:23:19;;;;;;;3.03;2.40;;;;;;;;;;4993043;28;20487;-56
2023/08/11 03:25:48;;;;;;;3.33;2.47;;;;;;;;;;4993566;28;20471;-56
2023/08/11 03:28:15;;;;;;;5.37;2.40;;;;;;;;;;4993923;28;20498;-56
2023/08/11 03:30:42;;;;;;;5.33;2.97;;;;;;;;;;4997931;28;20485;-55
2023/08/11 03:33:10;;;;;;;3.80;2.87;;;;;;;;;;5012983;28;20538;-54
2023/08/11 03:35:37;;;;;;;3.03;2.20;;;;;;;;;;5013263;28;20994;-55
2023/08/11 03:38:04;;;;;;;3.23;2.60;;;;;;;;;;5013510;28;20443;-55
2023/08/11 03:40:34;;;;;;;3.80;2.80;;;;;;;;;;5013228;28;20443;-54
2023/08/11 03:43:03;;;;;;;4.30;2.90;;;;;;;;;;5013174;28;20915;-54
2023/08/11 03:45:31;;;;;;;5.20;3.10;;;;;;;;;;5013390;28;20443;-55
2023/08/11 03:47:58;;;;;;;3.80;3.23;;;;;;;;;;5012933;28;20543;-54
2023/08/11 03:50:25;;;;;;;3.47;2.43;;;;;;;;;;5012960;28;20435;-55
2023/08/11 03:52:52;;;;;;;4.40;3.13;;;;;;;;;;5013027;28;20536;-55
2023/08/11 03:55:20;;;;;;;4.93;2.57;;;;;;;;;;5012916;28;20514;-55
2023/08/11 03:57:47;;;;;;;4.73;2.90;;;;;;;;;;5013203;28;20914;-54
2023/08/11 04:00:16;;;;;;;3.17;2.27;;;;;;;;;;5012778;28;20846;-56
2023/08/11 04:02:47;;;;;;;4.67;1.97;;;;;;;;;;5012602;28;20478;-54
2023/08/11 04:05:14;;;;;;;4.83;3.07;;;;;;;;;;5012677;28;20486;-56
2023/08/11 04:07:42;;;;;;;3.50;2.40;;;;;;;;;;5011035;28;20551;-55
2023/08/11 04:10:11;;;;;;;3.70;2.73;;;;;;;;;;5012877;28;20445;-56
2023/08/11 04:12:38;;;;;;;4.40;2.60;;;;;;;;;;5012318;28;20810;-55
2023/08/11 04:15:06;;;;;;;4.30;2.63;;;;;;;;;;5012673;28;20439;-56
2023/08/11 04:17:36;;;;;;;4.10;2.33;;;;;;;;;;5012736;28;20447;-55
2023/08/11 04:20:12;;;;;;;4.33;2.70;;;;;;;;;;5012463;28;20537;-55
2023/08/11 04:22:40;;;;;;;5.60;2.70;;;;;;;;;;5011896;28;20845;-56
2023/08/11 04:25:07;;;;;;;5.70;2.47;;;;;;;;;;5011869;28;20518;-56
2023/08/11 04:27:35;;;;;;;4.57;3.20;;;;;;;;;;5011957;28;20434;-56
2023/08/11 04:30:02;;;;;;;3.03;2.53;;;;;;;;;;5012405;28;20497;-56
2023/08/11 04:32:29;;;;;;;3.70;2.77;;;;;;;;;;5012223;28;20439;-54
2023/08/11 04:34:58;;;;;;;3.00;2.40;;;;;;;;;;5012481;28;20439;-54
2023/08/11 04:37:25;;;;;;;2.90;2.30;;;;;;;;;;5012140;28;20511;-54
2023/08/11 04:39:53;;;;;;;3.40;2.77;;;;;;;;;;5011356;28;20493;-54
2023/08/11 04:42:20;;;;;;;2.97;2.23;;;;;;;;;;4973052;28;20480;-54
2023/08/11 04:44:48;;;;;;;4.53;2.70;;;;;;;;;;4972952;28;20568;-56
2023/08/11 04:47:15;;;;;;;4.00;2.50;;;;;;;;;;4980300;28;20460;-55
2023/08/11 04:49:43;;;;;;;3.33;2.67;;;;;;;;;;4977481;28;20524;-54
2023/08/11 04:52:12;;;;;;;3.10;2.47;;;;;;;;;;4974686;28;20437;-56
2023/08/11 04:54:39;;;;;;;3.10;2.70;;;;;;;;;;4980338;28;20531;-54
2023/08/11 04:57:07;;;;;;;3.40;2.87;;;;;;;;;;4985460;28;20520;-56
2023/08/11 04:59:34;;;;;;;3.40;2.50;;;;;;;;;;4977688;28;21043;-54
2023/08/11 05:02:02;;;;;;;4.80;2.50;;;;;;;;;;4981029;28;20536;-56
2023/08/11 05:04:29;;;;;;;3.57;2.40;;;;;;;;;;4974296;28;20512;-54
2023/08/11 05:06:57;;;;;;;3.27;2.60;;;;;;;;;;4971607;28;20480;-54
2023/08/11 05:09:25;;;;;;;4.83;2.93;;;;;;;;;;4978148;28;21027;-54
2023/08/11 05:11:53;;;;;;;3.00;2.40;;;;;;;;;;4982256;28;20472;-56
2023/08/11 05:14:20;;;;;;;5.30;3.03;;;;;;;;;;4981890;28;20452;-54
2023/08/11 05:16:47;;;;;;;2.93;2.50;;;;;;;;;;4978351;28;20448;-56
2023/08/11 05:19:14;;;;;;;3.57;2.40;;;;;;;;;;4978877;28;20511;-55
2023/08/11 05:21:42;;;;;;;3.57;2.30;;;;;;;;;;4978553;28;20475;-56
2023/08/11 05:24:10;;;;;;;4.23;3.00;;;;;;;;;;4982226;28;21083;-56
2023/08/11 05:26:39;;;;;;;3.77;2.70;;;;;;;;;;4980127;28;20942;-56
2023/08/11 05:29:06;;;;;;;3.23;2.90;;;;;;;;;;4980892;28;20487;-55
2023/08/11 05:31:34;;;;;;;2.80;2.23;;;;;;;;;;4976436;28;20887;-55
2023/08/11 05:34:01;;;;;;;4.57;2.50;;;;;;;;;;4973015;28;20845;-54
2023/08/11 05:36:28;;;;;;;3.20;2.53;;;;;;;;;;4972351;28;20483;-55
2023/08/11 05:38:56;;;;;;;3.07;2.67;;;;;;;;;;4972289;28;20441;-55
2023/08/11 05:41:23;;;;;;;3.00;2.40;;;;;;;;;;4984599;28;20484;-55
2023/08/11 05:43:52;;;;;;;3.90;2.20;;;;;;;;;;4989158;28;20669;-56
2023/08/11 05:46:19;;;;;;;4.20;2.90;;;;;;;;;;4981702;28;20475;-55
2023/08/11 05:48:48;;;;;;;3.03;2.00;;;;;;;;;;4977887;28;20533;-57
2023/08/11 05:51:16;;;;;;;2.90;2.20;;;;;;;;;;4987700;28;20447;-55
2023/08/11 05:53:43;;;;;;;3.23;2.73;;;;;;;;;;4991440;28;20452;-54
2023/08/11 05:56:10;;;;;;;3.70;2.40;;;;;;;;;;4986630;28;20715;-54
2023/08/11 05:58:37;;;;;;;3.53;2.80;;;;;;;;;;4987639;28;20444;-54
2023/08/11 06:01:06;;;;;;;5.20;3.37;;;;;;;;;;4989186;28;21027;-56
2023/08/11 06:03:33;;;;;;;3.80;2.73;;;;;;;;;;4990844;28;20559;-54
2023/08/11 06:06:01;;;;;;;3.57;2.97;;;;;;;;;;4977345;28;20938;-55
2023/08/11 06:08:28;;;;;;;4.13;2.80;;;;;;;;;;4971659;28;20445;-56
2023/08/11 06:10:56;;;;;;;3.20;2.60;;;;;;;;;;4979860;28;21020;-56
2023/08/11 06:13:23;;;;;;;3.77;2.40;;;;;;;;;;4988777;28;20464;-56
2023/08/11 06:15:50;;;;;;;3.50;2.30;;;;;;;;;;4989605;28;20479;-53
2023/08/11 06:18:19;;;;;;;3.50;2.20;;;;;;;;;;4988003;28;20751;-55
2023/08/11 06:20:47;;;;;;;3.07;2.50;;;;;;;;;;4978538;28;20552;-56
2023/08/11 06:23:14;;;;;;;4.27;2.40;;;;;;;;;;4988151;28;20916;-56
2023/08/11 06:25:41;;;;;;;3.73;3.03;;;;;;;;;;4989682;28;20980;-57
2023/08/11 06:28:09;;;;;;;6.80;3.67;;;;;;;;;;4987390;28;20448;-55
2023/08/11 06:30:36;;;;;;;5.23;3.00;;;;;;;;;;4976337;28;20471;-54
2023/08/11 06:33:03;;;;;;;4.90;3.90;;;;;;;;;;4975680;28;20460;-54
2023/08/11 06:35:32;;;;;;;4.50;3.33;;;;;;;;;;4983453;28;20443;-54
2023/08/11 06:37:59;;;;;;;5.00;3.30;;;;;;;;;;4976806;28;20453;-54
2023/08/11 06:40:27;;;;;;;4.93;2.90;;;;;;;;;;4976455;28;20869;-54
2023/08/11 06:42:54;;;;;;;3.60;2.50;;;;;;;;;;4975154;28;20543;-54
2023/08/11 06:45:21;;;;;;;4.03;2.50;;;;;;;;;;4987747;28;21031;-55
2023/08/11 06:47:49;;;;;;;3.73;2.80;;;;;;;;;;4991283;28;20448;-55
2023/08/11 06:50:16;;;;;;;4.57;3.17;;;;;;;;;;4979053;28;20949;-56
2023/08/11 06:52:44;;;;;;;5.20;3.83;;;;;;;;;;4983189;28;20531;-57
2023/08/11 06:55:12;;;;;;;3.57;3.10;;;;;;;;;;4992841;28;20440;-55
2023/08/11 06:57:39;;;;;;;4.30;3.13;;;;;;;;;;4992603;28;20480;-56
2023/08/11 07:00:07;;;;;;;3.40;2.90;;;;;;;;;;4992483;28;20447;-54
2023/08/11 07:02:35;;;;;;;4.13;2.70;;;;;;;;;;4994353;28;20455;-56
2023/08/11 07:05:03;;;;;;;4.60;2.70;;;;;;;;;;4987390;28;20511;-55
2023/08/11 07:07:30;;;;;;;4.30;2.80;;;;;;;;;;4973651;28;20873;-56
2023/08/11 07:09:59;;;;;;;4.80;2.70;;;;;;;;;;4974762;28;20869;-56
2023/08/11 07:12:26;;;;;;;3.20;2.50;;;;;;;;;;4974821;28;20483;-54
2023/08/11 07:14:53;;;;;;;4.50;3.00;;;;;;;;;;4974275;28;20493;-56
2023/08/11 07:17:20;;;;;;;3.10;2.30;;;;;;;;;;4974810;28;20461;-56
2023/08/11 07:19:48;;;;;;;3.70;2.77;;;;;;;;;;4978793;28;20563;-56
2023/08/11 07:22:17;;;;;;;3.67;3.20;;;;;;;;;;4989815;28;20471;-57
2023/08/11 07:24:44;;;;;;;3.87;2.90;;;;;;;;;;4974267;28;20912;-54
2023/08/11 07:27:12;;;;;;;4.90;3.30;;;;;;;;;;4974636;28;20865;-55
2023/08/11 07:29:40;;;;;;;2.70;2.07;;;;;;;;;;4975472;28;20500;-54
2023/08/11 07:32:07;;;;;;;2.73;2.03;;;;;;;;;;4973852;28;20941;-56
2023/08/11 07:34:36;;;;;;;4.50;2.57;;;;;;;;;;4974393;28;20497;-56
2023/08/11 07:37:04;;;;;;;2.80;2.43;;;;;;;;;;4975492;28;20445;-56
2023/08/11 07:39:31;;;;;;;3.03;2.50;;;;;;;;;;4975155;28;20445;-54
2023/08/11 07:42:02;;;;;;;3.37;2.60;;;;;;;;;;4975288;28;20885;-54
2023/08/11 07:44:31;;;;;;;3.10;2.30;;;;;;;;;;4984073;28;20530;-56
2023/08/11 07:47:00;;;;;;;3.40;2.63;;;;;;;;;;4993773;28;20734;-56
2023/08/11 07:49:27;;;;;;;3.80;2.80;;;;;;;;;;4991738;28;20452;-56
2023/08/11 07:51:57;;;;;;;8.10;2.50;;;;;;;;;;4982216;28;20891;-56
2023/08/11 07:54:24;;;;;;;4.47;2.97;;;;;;;;;;4975285;28;20469;-57
2023/08/11 07:56:51;;;;;;;3.00;2.33;;;;;;;;;;4973766;28;20532;-54
2023/08/11 07:59:18;;;;;;;3.57;2.50;;;;;;;;;;4973722;28;20441;-55
2023/08/11 08:01:47;;;;;;;5.07;2.40;;;;;;;;;;4981595;28;20480;-54
2023/08/11 08:04:14;;;;;;;3.80;2.53;;;;;;;;;;4985395;28;20486;-55
2023/08/11 08:06:45;;;;;;;3.47;2.10;;;;;;;;;;4991828;28;20511;-57
2023/08/11 08:09:13;;;;;;;3.40;2.30;;;;;;;;;;4983919;28;20453;-56
2023/08/11 08:11:42;;;;;;;3.30;2.07;;;;;;;;;;4980508;28;20459;-56
2023/08/11 08:14:10;;;;;;;4.40;2.97;;;;;;;;;;4985457;28;20475;-55
2023/08/11 08:16:37;;;;;;;3.27;2.17;;;;;;;;;;4975668;28;20949;-56
2023/08/11 08:19:06;;;;;;;4.17;2.37;;;;;;;;;;4979457;28;20532;-55
2023/08/11 08:21:33;;;;;;;3.80;2.37;;;;;;;;;;4992845;28;20436;-56
2023/08/11 08:24:04;;;;;;;3.50;2.50;;;;;;;;;;5008969;23;20540;-53
2023/08/11 08:26:31;;;;;;;3.10;2.33;;;;;;;;;;4992658;28;20531;-53
2023/08/11 08:28:59;;;;;;;3.07;2.37;;;;;;;;;;4990481;28;20526;-53
2023/08/11 08:31:27;;;;;;;3.33;2.10;;;;;;;;;;4992264;28;20885;-53
2023/08/11 08:33:54;;;;;;;3.43;2.10;;;;;;;;;;4983492;28;20536;-53
2023/08/11 08:36:23;;;;;;;3.23;2.10;;;;;;;;;;4971835;28;20476;-55
2023/08/11 08:38:50;;;;;;;3.30;2.33;;;;;;;;;;4971527;28;20552;-53
2023/08/11 08:41:20;;;;;;;12.50;2.63;;;;;;;;;;4972639;28;20436;-53
2023/08/11 08:43:48;;;;;;;3.10;2.17;;;;;;;;;;4972586;28;20463;-53
2023/08/11 08:46:15;;;;;;;2.80;1.90;;;;;;;;;;4972945;28;20503;-53
2023/08/11 08:48:45;;;;;;;2.73;1.90;;;;;;;;;;4972363;28;20491;-54
2023/08/11 08:51:12;;;;;;;2.93;2.07;;;;;;;;;;4969885;28;20477;-53
2023/08/11 08:53:41;;;;;;;3.63;2.23;;;;;;;;;;4957612;28;20481;-54
2023/08/11 08:56:09;;;;;;;3.30;2.23;;;;;;;;;;4969842;28;20734;-54
2023/08/11 08:58:36;;;;;;;3.77;2.50;;;;;;;;;;4970609;28;20824;-53
2023/08/11 09:01:03;;;;;;;4.00;2.67;;;;;;;;;;4970509;28;20444;-54
2023/08/11 09:03:31;;;;;;;4.03;2.83;;;;;;;;;;4970108;28;20507;-53
2023/08/11 09:05:59;;;;;;;2.93;1.80;;;;;;;;;;4971800;28;20477;-53
2023/08/11 09:08:26;;;;;;;3.30;2.30;;;;;;;;;;4972330;28;20476;-54
2023/08/11 09:10:55;;;;;;;3.87;2.50;;;;;;;;;;4971466;28;20759;-53
2023/08/11 09:13:22;;;;;;;3.43;2.30;;;;;;;;;;4970661;28;20540;-53
2023/08/11 09:15:50;;;;;;;2.77;2.10;;;;;;;;;;4971136;28;20492;-54
2023/08/11 09:18:17;;;;;;;3.10;2.27;;;;;;;;;;4970226;28;20481;-53
2023/08/11 09:20:47;;;;;;;2.77;2.20;;;;;;;;;;4970779;28;20878;-53
2023/08/11 09:23:14;;;;;;;3.67;2.43;;;;;;;;;;4965580;28;20470;-54
2023/08/11 09:25:41;;;;;;;3.00;2.07;;;;;;;;;;4952317;29;20486;-53
2023/08/11 09:28:10;;;;;;;3.77;2.40;;;;;;;;;;4952020;28;20856;-53
2023/08/11 09:30:37;;;;;;;3.73;2.30;;;;;;;;;;4952876;29;21009;-53
2023/08/11 09:33:08;;;;;;;5.40;2.37;;;;;;;;;;4969283;28;20452;-53
2023/08/11 09:35:35;;;;;;;5.60;2.80;;;;;;;;;;4972031;28;20505;-54
2023/08/11 09:38:02;;;;;;;2.63;2.20;;;;;;;;;;4968898;28;20789;-53
2023/08/11 09:40:29;;;;;;;3.57;2.40;;;;;;;;;;4972291;28;20441;-54
2023/08/11 09:42:57;;;;;;;3.80;2.67;;;;;;;;;;4971048;28;20930;-54
2023/08/11 09:45:26;;;;;;;2.90;2.03;;;;;;;;;;4971350;28;22260;-54
2023/08/11 09:47:53;;;;;;;3.53;2.20;;;;;;;;;;4970695;28;20917;-53
2023/08/11 09:50:20;;;;;;;2.83;2.00;;;;;;;;;;4971586;28;20445;-53
2023/08/11 09:52:48;;;;;;;5.20;2.33;;;;;;;;;;4970703;28;20453;-53
2023/08/11 09:55:16;;;;;;;3.30;1.80;;;;;;;;;;4970738;28;20465;-54
2023/08/11 09:57:44;;;;;;;3.40;2.40;;;;;;;;;;4969734;28;21022;-54
2023/08/11 10:00:13;;;;;;;2.70;2.17;;;;;;;;;;4971971;28;20449;-54
2023/08/11 10:02:45;;;;;;;3.57;2.00;;;;;;;;;;4970991;28;20437;-54
2023/08/11 10:05:12;;;;;;;3.00;2.30;;;;;;;;;;4956866;28;20978;-54
2023/08/11 10:07:40;;;;;;;2.47;1.70;;;;;;;;;;4970499;28;20740;-53
2023/08/11 10:10:12;;;;;;;3.53;2.80;;;;;;;;;;4970380;28;20520;-54
2023/08/11 10:12:41;;;;;;;2.70;2.40;;;;;;;;;;4971176;28;20512;-54
2023/08/11 10:15:09;;;;;;;3.23;1.80;;;;;;;;;;4970939;28;20544;-54
2023/08/11 10:17:36;;;;;;;3.23;2.13;;;;;;;;;;4969000;28;20536;-54
2023/08/11 10:20:07;;;;;;;2.50;1.80;;;;;;;;;;4969450;28;20441;-54
2023/08/11 10:22:34;;;;;;;2.70;2.07;;;;;;;;;;4968565;28;20978;-53
2023/08/11 10:25:04;;;;;;;4.93;2.33;;;;;;;;;;4969713;28;20484;-54
2023/08/11 10:27:31;;;;;;;3.27;2.43;;;;;;;;;;4968480;28;20503;-53
2023/08/11 10:29:59;;;;;;;3.60;2.53;;;;;;;;;;4969960;28;20784;-55
2023/08/11 10:32:30;;;;;;;3.07;2.10;;;;;;;;;;4970142;28;20476;-54
2023/08/11 10:34:58;;;;;;;3.73;2.40;;;;;;;;;;4968234;28;20540;-54
2023/08/11 10:37:30;;;;;;;3.10;2.30;;;;;;;;;;4968032;28;20569;-54
2023/08/11 10:40:03;;;;;;;8.33;2.50;;;;;;;;;;4970770;28;20518;-54
2023/08/11 10:42:30;;;;;;;4.20;2.50;;;;;;;;;;4970349;28;20473;-54
2023/08/11 10:45:07;;;;;;;3.20;2.50;;;;;;;;;;4969323;28;20943;-53
2023/08/11 10:47:35;;;;;;;3.27;2.63;;;;;;;;;;4969905;28;20933;-54
2023/08/11 10:50:03;;;;;;;3.10;2.20;;;;;;;;;;4970812;28;20473;-54
2023/08/11 10:52:34;;;;;;;4.60;2.80;;;;;;;;;;4970899;28;20532;-53
2023/08/11 10:55:03;;;;;;;3.27;2.60;;;;;;;;;;4969944;28;20457;-54
2023/08/11 10:57:31;;;;;;;4.00;2.43;;;;;;;;;;4962815;28;20452;-54
2023/08/11 10:59:58;;;;;;;3.33;2.70;;;;;;;;;;4970591;28;20433;-53
2023/08/11 11:02:26;;;;;;;3.67;2.23;;;;;;;;;;4970500;28;20452;-54
2023/08/11 11:04:53;;;;;;;4.53;2.07;;;;;;;;;;4968919;28;20460;-54
2023/08/11 11:07:23;;;;;;;3.83;2.47;;;;;;;;;;4962184;28;20537;-54
2023/08/11 11:09:53;;;;;;;2.80;2.20;;;;;;;;;;4962955;28;21029;-54
2023/08/11 11:12:20;;;;;;;3.60;2.23;;;;;;;;;;4965432;28;20445;-54
2023/08/11 11:14:48;;;;;;;3.70;2.63;;;;;;;;;;4969301;28;20464;-54
2023/08/11 11:17:15;;;;;;;3.03;1.80;;;;;;;;;;4967954;28;20539;-54
2023/08/11 11:19:43;;;;;;;2.90;2.00;;;;;;;;;;4969754;28;20865;-54
2023/08/11 11:22:10;;;;;;;3.20;1.90;;;;;;;;;;4965521;28;20556;-54
2023/08/11 11:24:38;;;;;;;2.90;2.17;;;;;;;;;;4971108;28;20846;-54
2023/08/11 11:27:07;;;;;;;4.57;2.20;;;;;;;;;;4971519;28;20563;-53
2023/08/11 11:29:35;;;;;;;4.00;2.23;;;;;;;;;;4974070;28;20445;-52
2023/08/11 11:32:06;;;;;;;4.03;2.13;;;;;;;;;;4971881;28;21049;-53
2023/08/11 11:34:36;;;;;;;2.80;2.00;;;;;;;;;;4973408;28;20457;-53
2023/08/11 11:37:04;;;;;;;3.17;2.30;;;;;;;;;;4971535;28;20445;-53
2023/08/11 11:39:32;;;;;;;3.33;2.43;;;;;;;;;;4972370;28;20441;-53
2023/08/11 11:42:06;;;;;;;2.70;1.80;;;;;;;;;;4972098;28;20823;-53
2023/08/11 11:44:35;;;;;;;3.33;2.20;;;;;;;;;;4972574;28;20468;-54
2023/08/11 11:47:03;;;;;;;3.70;2.57;;;;;;;;;;4972738;28;20807;-53
2023/08/11 11:49:32;;;;;;;3.43;2.90;;;;;;;;;;4972761;28;20499;-53
2023/08/11 11:52:00;;;;;;;3.13;2.10;;;;;;;;;;4973869;28;20468;-53
2023/08/11 11:54:29;;;;;;;3.80;2.43;;;;;;;;;;4973697;28;20468;-53
2023/08/11 11:56:57;;;;;;;3.00;1.80;;;;;;;;;;4973724;28;20841;-53
2023/08/11 11:59:25;;;;;;;3.23;2.10;;;;;;;;;;4973986;28;20441;-54
2023/08/11 12:01:53;;;;;;;2.63;2.00;;;;;;;;;;4973548;28;20790;-54
2023/08/11 12:04:21;;;;;;;3.37;2.20;;;;;;;;;;4973621;28;20977;-54
2023/08/11 12:06:48;;;;;;;3.87;1.90;;;;;;;;;;4973929;28;20487;-54
2023/08/11 12:09:16;;;;;;;3.10;1.70;;;;;;;;;;4973991;28;20456;-53
2023/08/11 12:11:43;;;;;;;2.97;1.70;;;;;;;;;;4973454;28;20554;-53
2023/08/11 12:14:13;;;;;;;3.13;2.00;;;;;;;;;;4973600;28;20496;-53
2023/08/11 12:16:40;;;;;;;3.13;1.90;;;;;;;;;;4973721;28;20485;-53
2023/08/11 12:19:09;;;;;;;3.27;1.80;;;;;;;;;;4973378;28;20477;-54
2023/08/11 12:21:36;;;;;;;2.87;1.90;;;;;;;;;;4973049;28;20468;-53
2023/08/11 12:24:03;;;;;;;3.23;1.83;;;;;;;;;;4972889;28;20784;-54
2023/08/11 12:26:30;;;;;;;3.07;1.57;;;;;;;;;;4972141;28;20484;-54
2023/08/11 12:28:58;;;;;;;2.77;1.70;;;;;;;;;;4972772;28;21018;-54
2023/08/11 12:31:25;;;;;;;2.80;2.20;;;;;;;;;;4971982;28;20455;-53
2023/08/11 12:33:52;;;;;;;3.03;1.70;;;;;;;;;;4970979;28;20501;-55
2023/08/11 12:36:21;;;;;;;2.83;1.73;;;;;;;;;;4971688;28;20512;-54
2023/08/11 12:38:49;;;;;;;3.50;1.97;;;;;;;;;;4971665;28;20451;-54
2023/08/11 12:41:17;;;;;;;3.17;1.83;;;;;;;;;;4971122;28;20491;-54
2023/08/11 12:43:44;;;;;;;3.00;1.90;;;;;;;;;;4971634;28;20469;-54
2023/08/11 12:46:12;;;;;;;2.80;1.93;;;;;;;;;;4972008;28;20934;-54
2023/08/11 12:48:39;;;;;;;2.90;1.97;;;;;;;;;;4972914;28;20889;-54
2023/08/11 12:51:07;;;;;;;2.50;1.80;;;;;;;;;;4972661;28;20484;-54
2023/08/11 12:53:35;;;;;;;2.40;1.50;;;;;;;;;;4972646;28;20485;-55
2023/08/11 12:56:02;;;;;;;3.20;2.00;;;;;;;;;;4972882;28;20993;-54
2023/08/11 12:58:30;;;;;;;3.27;1.67;;;;;;;;;;4972602;28;20440;-54
2023/08/11 13:00:57;;;;;;;3.03;2.10;;;;;;;;;;4972679;28;20503;-54
2023/08/11 13:03:24;;;;;;;4.20;2.23;;;;;;;;;;4972924;28;20520;-54
2023/08/11 13:05:52;;;;;;;3.33;2.00;;;;;;;;;;4972695;28;20566;-55
2023/08/11 13:08:19;;;;;;;2.80;1.77;;;;;;;;;;4972438;28;20997;-53
2023/08/11 13:10:47;;;;;;;3.10;1.83;;;;;;;;;;4972448;28;20585;-54
2023/08/11 13:13:15;;;;;;;4.33;2.13;;;;;;;;;;4972163;28;20495;-54
2023/08/11 13:15:42;;;;;;;2.33;1.60;;;;;;;;;;4972511;28;20524;-54
2023/08/11 13:18:09;;;;;;;2.73;1.77;;;;;;;;;;4972111;28;20937;-54
2023/08/11 13:20:36;;;;;;;3.30;1.80;;;;;;;;;;4972340;28;20487;-54
2023/08/11 13:23:04;;;;;;;2.97;2.00;;;;;;;;;;4972100;28;21005;-54
2023/08/11 13:25:31;;;;;;;5.20;2.40;;;;;;;;;;4972460;28;20464;-54
2023/08/11 13:28:00;;;;;;;3.63;1.93;;;;;;;;;;4972398;28;20437;-54
2023/08/11 13:30:30;;;;;;;2.57;1.77;;;;;;;;;;4981902;28;20502;-53
2023/08/11 13:32:58;;;;;;;3.40;2.13;;;;;;;;;;4991132;28;20540;-54
2023/08/11 13:35:25;;;;;;;2.40;1.80;;;;;;;;;;4991619;28;20854;-54
2023/08/11 13:37:52;;;;;;;2.80;1.83;;;;;;;;;;4991259;28;20484;-54
2023/08/11 13:40:19;;;;;;;2.93;1.70;;;;;;;;;;4991276;28;20444;-54
2023/08/11 13:42:47;;;;;;;3.40;1.70;;;;;;;;;;4991593;28;20448;-54
2023/08/11 13:45:15;;;;;;;4.90;2.07;;;;;;;;;;4991296;28;20884;-54
2023/08/11 13:47:43;;;;;;;2.97;2.20;;;;;;;;;;4991501;28;20491;-54
2023/08/11 13:50:11;;;;;;;2.93;1.60;;;;;;;;;;4991417;28;20466;-54
2023/08/11 13:52:38;;;;;;;2.50;1.43;;;;;;;;;;4990966;28;20444;-54
2023/08/11 13:55:06;;;;;;;2.53;1.50;;;;;;;;;;4990860;28;20523;-53
2023/08/11 13:57:34;;;;;;;4.30;1.43;;;;;;;;;;4991499;28;20440;-54
2023/08/11 14:00:01;;;;;;;2.80;1.50;;;;;;;;;;4991414;28;20472;-54
2023/08/11 14:02:30;;;;;;;2.73;1.67;;;;;;;;;;4990968;28;20447;-53
2023/08/11 14:04:57;;;;;;;2.60;1.43;;;;;;;;;;4991042;28;20468;-53
2023/08/11 14:07:25;;;;;;;2.80;1.83;;;;;;;;;;4990953;28;20507;-53
2023/08/11 14:09:52;;;;;;;2.00;1.30;;;;;;;;;;4991013;28;20502;-54
2023/08/11 14:12:21;;;;;;;3.00;2.10;;;;;;;;;;4990724;28;20507;-53
2023/08/11 14:14:48;;;;;;;2.80;2.00;;;;;;;;;;4990837;28;20539;-53
2023/08/11 14:17:15;;;;;;;2.93;1.80;;;;;;;;;;4991127;28;20467;-53
2023/08/11 14:19:44;;;;;;;3.70;2.37;;;;;;;;;;4990612;28;20544;-54
2023/08/11 14:22:11;;;;;;;3.77;2.13;;;;;;;;;;4990836;28;20494;-53
2023/08/11 14:24:38;;;;;;;3.70;2.50;;;;;;;;;;5012291;23;20577;-87
2023/08/11 14:27:07;;;;;;;3.70;2.20;;;;;;;;;;5012500;28;20553;-87
2023/08/11 14:29:34;;;;;;;3.00;1.80;;;;;;;;;;5012674;28;20918;-87
2023/08/11 14:32:01;;;;;;;2.83;2.00;;;;;;;;;;5012642;28;20600;-88
2023/08/11 14:34:29;;;;;;;3.87;2.10;;;;;;;;;;5011951;28;20493;-86
2023/08/11 14:36:57;;;;;;;2.40;1.80;;;;;;;;;;5032311;23;20544;-58
2023/08/11 14:39:24;;;;;;;2.50;2.00;;;;;;;;;;5030549;28;20525;-56
2023/08/11 14:41:52;;;;;;;2.43;1.90;;;;;;;;;;5029451;28;20465;-58
2023/08/11 14:44:19;;;;;;;4.20;2.13;;;;;;;;;;5030313;28;20462;-57
2023/08/11 14:46:46;;;;;;;2.60;2.10;;;;;;;;;;5024663;28;20554;-57